sensor_id;sensor_type;location;lat;lon;timestamp;pressure;altitude;pressure_sealevel;temperature;humidity
9893;BME280;4985;49.092;8.542;2022-11-12T00:01:13;100937.38;;;16.56;52.87
9893;BME280;4985;49.092;8.542;2022-11-12T00:03:39;100937.38;;;16.56;52.88
9893;BME280;4985;49.092;8.542;2022-11-12T00:06:06;100936.38;;;16.57;52.87
9893;BME280;4985;49.092;8.542;2022-11-12T00:08:33;100936.56;;;16.55;52.86
9893;BME280;4985;49.092;8.542;2022-11-12T00:11:01;100947.19;;;16.55;52.87
9893;BME280;4985;49.092;8.542;2022-11-12T00:13:29;100937.38;;;16.56;52.85
9893;BME280;4985;49.092;8.542;2022-11-12T00:15:55;100934.72;;;16.56;52.84
9893;BME280;4985;49.092;8.542;2022-11-12T00:18:22;100936.56;;;16.55;52.86
9893;BME280;4985;49.092;8.542;2022-11-12T00:20:49;100937.53;;;16.54;52.86
9893;BME280;4985;49.092;8.542;2022-11-12T00:23:15;100934.88;;;16.54;52.88
9893;BME280;4985;49.092;8.542;2022-11-12T00:25:42;100939.22;;;16.55;52.87
9893;BME280;4985;49.092;8.542;2022-11-12T00:28:10;100941.03;;;16.55;52.84
9893;BME280;4985;49.092;8.542;2022-11-12T00:30:38;100942.88;;;16.54;52.84
9893;BME280;4985;49.092;8.542;2022-11-12T00:33:05;100932.22;;;16.54;52.85
9893;BME280;4985;49.092;8.542;2022-11-12T00:35:33;100928.75;;;16.54;52.87
9893;BME280;4985;49.092;8.542;2022-11-12T00:38:00;100935.72;;;16.55;52.85
9893;BME280;4985;49.092;8.542;2022-11-12T00:40:27;100934.88;;;16.54;52.85
9893;BME280;4985;49.092;8.542;2022-11-12T00:42:54;100942.88;;;16.54;52.87
9893;BME280;4985;49.092;8.542;2022-11-12T00:45:23;100934.88;;;16.54;52.87
9893;BME280;4985;49.092;8.542;2022-11-12T00:47:53;100935.03;;;16.53;52.87
9893;BME280;4985;49.092;8.542;2022-11-12T00:50:20;100936.72;;;16.54;52.86
9893;BME280;4985;49.092;8.542;2022-11-12T00:52:46;100931.41;;;16.54;52.85
9893;BME280;4985;49.092;8.542;2022-11-12T00:55:13;100939.38;;;16.54;52.86
9893;BME280;4985;49.092;8.542;2022-11-12T00:57:40;100937.69;;;16.53;52.87
9893;BME280;4985;49.092;8.542;2022-11-12T01:00:13;100938.50;;;16.53;52.88
9893;BME280;4985;49.092;8.542;2022-11-12T01:02:41;100939.50;;;16.52;52.88
9893;BME280;4985;49.092;8.542;2022-11-12T01:05:08;100936.03;;;16.52;52.90
9893;BME280;4985;49.092;8.542;2022-11-12T01:07:35;100932.53;;;16.51;52.88
9893;BME280;4985;49.092;8.542;2022-11-12T01:10:02;100941.34;;;16.52;52.89
9893;BME280;4985;49.092;8.542;2022-11-12T01:12:29;100934.34;;;16.51;52.88
9893;BME280;4985;49.092;8.542;2022-11-12T01:14:56;100929.88;;;16.51;52.87
9893;BME280;4985;49.092;8.542;2022-11-12T01:17:22;100934.34;;;16.51;52.87
9893;BME280;4985;49.092;8.542;2022-11-12T01:19:50;100934.34;;;16.51;52.89
9893;BME280;4985;49.092;8.542;2022-11-12T01:22:17;100929.03;;;16.51;52.86
9893;BME280;4985;49.092;8.542;2022-11-12T01:24:44;100930.88;;;16.50;52.87
9893;BME280;4985;49.092;8.542;2022-11-12T01:27:10;100938.00;;;16.50;52.87
9893;BME280;4985;49.092;8.542;2022-11-12T01:29:37;100933.53;;;16.50;52.87
9893;BME280;4985;49.092;8.542;2022-11-12T01:32:04;100931.69;;;16.51;52.88
9893;BME280;4985;49.092;8.542;2022-11-12T01:34:31;100930.03;;;16.50;52.86
9893;BME280;4985;49.092;8.542;2022-11-12T01:36:59;100931.87;;;16.49;52.88
9893;BME280;4985;49.092;8.542;2022-11-12T01:39:25;100931.03;;;16.49;52.88
9893;BME280;4985;49.092;8.542;2022-11-12T01:41:52;100919.56;;;16.48;52.88
9893;BME280;4985;49.092;8.542;2022-11-12T01:44:20;100922.91;;;16.50;52.83
9893;BME280;4985;49.092;8.542;2022-11-12T01:46:57;100921.06;;;16.51;52.84
9893;BME280;4985;49.092;8.542;2022-11-12T01:49:28;100916.75;;;16.50;52.83
9893;BME280;4985;49.092;8.542;2022-11-12T01:52:07;100913.09;;;16.51;52.82
9893;BME280;4985;49.092;8.542;2022-11-12T01:54:36;100906.12;;;16.50;52.81
9893;BME280;4985;49.092;8.542;2022-11-12T01:57:04;100910.59;;;16.49;52.84
9893;BME280;4985;49.092;8.542;2022-11-12T01:59:44;100909.78;;;16.49;52.84
9893;BME280;4985;49.092;8.542;2022-11-12T02:02:13;100915.09;;;16.49;52.84
9893;BME280;4985;49.092;8.542;2022-11-12T02:04:41;100912.44;;;16.49;52.84
9893;BME280;4985;49.092;8.542;2022-11-12T02:07:09;100911.59;;;16.48;52.85
9893;BME280;4985;49.092;8.542;2022-11-12T02:09:37;100914.25;;;16.48;52.86
9893;BME280;4985;49.092;8.542;2022-11-12T02:12:04;100909.09;;;16.47;52.88
9893;BME280;4985;49.092;8.542;2022-11-12T02:14:31;100901.13;;;16.47;52.85
9893;BME280;4985;49.092;8.542;2022-11-12T02:16:57;100903.78;;;16.47;52.88
9893;BME280;4985;49.092;8.542;2022-11-12T02:19:25;100891.97;;;16.41;52.86
9893;BME280;4985;49.092;8.542;2022-11-12T02:21:53;100906.44;;;16.47;52.86
9893;BME280;4985;49.092;8.542;2022-11-12T02:24:30;100911.75;;;16.47;52.87
9893;BME280;4985;49.092;8.542;2022-11-12T02:26:58;100894.16;;;16.46;52.89
9893;BME280;4985;49.092;8.542;2022-11-12T02:29:25;100894.97;;;16.46;52.89
9893;BME280;4985;49.092;8.542;2022-11-12T02:31:51;100896.81;;;16.46;52.88
9893;BME280;4985;49.092;8.542;2022-11-12T02:34:18;100888.84;;;16.46;52.85
9893;BME280;4985;49.092;8.542;2022-11-12T02:36:44;100894.16;;;16.46;52.88
9893;BME280;4985;49.092;8.542;2022-11-12T02:39:12;100891.50;;;16.46;52.87
9893;BME280;4985;49.092;8.542;2022-11-12T02:41:39;100889.66;;;16.46;52.86
9893;BME280;4985;49.092;8.542;2022-11-12T02:44:06;100898.63;;;16.45;52.85
9893;BME280;4985;49.092;8.542;2022-11-12T02:46:32;100900.28;;;16.46;52.86
9893;BME280;4985;49.092;8.542;2022-11-12T02:48:59;100904.78;;;16.46;52.87
9893;BME280;4985;49.092;8.542;2022-11-12T02:51:26;100901.28;;;16.45;52.85
9893;BME280;4985;49.092;8.542;2022-11-12T02:53:52;100895.97;;;16.45;52.86
9893;BME280;4985;49.092;8.542;2022-11-12T02:56:20;100896.97;;;16.44;52.88
9893;BME280;4985;49.092;8.542;2022-11-12T02:58:47;100897.81;;;16.45;52.86
9893;BME280;4985;49.092;8.542;2022-11-12T03:01:13;100896.16;;;16.44;52.89
9893;BME280;4985;49.092;8.542;2022-11-12T03:03:40;100892.50;;;16.45;52.86
9893;BME280;4985;49.092;8.542;2022-11-12T03:06:07;100896.97;;;16.44;52.87
9893;BME280;4985;49.092;8.542;2022-11-12T03:08:33;100890.81;;;16.44;52.88
9893;BME280;4985;49.092;8.542;2022-11-12T03:11:05;100900.63;;;16.43;52.87
9893;BME280;4985;49.092;8.542;2022-11-12T03:13:33;100892.78;;;16.42;52.89
9893;BME280;4985;49.092;8.542;2022-11-12T03:15:59;100906.09;;;16.42;52.91
9893;BME280;4985;49.092;8.542;2022-11-12T03:18:26;100900.75;;;16.42;52.90
9893;BME280;4985;49.092;8.542;2022-11-12T03:20:54;100902.59;;;16.41;52.89
9893;BME280;4985;49.092;8.542;2022-11-12T03:23:21;100903.41;;;16.42;52.89
9893;BME280;4985;49.092;8.542;2022-11-12T03:25:47;100901.75;;;16.41;52.90
9893;BME280;4985;49.092;8.542;2022-11-12T03:28:15;100904.41;;;16.41;52.90
9893;BME280;4985;49.092;8.542;2022-11-12T03:30:43;100914.06;;;16.42;52.88
9893;BME280;4985;49.092;8.542;2022-11-12T03:33:12;100908.75;;;16.42;52.89
9893;BME280;4985;49.092;8.542;2022-11-12T03:35:40;100905.13;;;16.43;52.86
9893;BME280;4985;49.092;8.542;2022-11-12T03:38:07;100910.56;;;16.41;52.86
9893;BME280;4985;49.092;8.542;2022-11-12T03:40:33;100896.28;;;16.34;52.87
9893;BME280;4985;49.092;8.542;2022-11-12T03:43:00;100909.72;;;16.41;52.87
9893;BME280;4985;49.092;8.542;2022-11-12T03:45:27;100910.72;;;16.40;52.87
9893;BME280;4985;49.092;8.542;2022-11-12T03:47:56;100907.06;;;16.41;52.89
9893;BME280;4985;49.092;8.542;2022-11-12T03:50:25;100911.56;;;16.40;52.89
9893;BME280;4985;49.092;8.542;2022-11-12T03:52:54;100894.78;;;16.40;52.89
9893;BME280;4985;49.092;8.542;2022-11-12T03:55:23;100893.12;;;16.39;52.90
9893;BME280;4985;49.092;8.542;2022-11-12T03:57:50;100898.44;;;16.39;52.90
9893;BME280;4985;49.092;8.542;2022-11-12T04:00:18;100900.09;;;16.40;52.89
9893;BME280;4985;49.092;8.542;2022-11-12T04:02:45;100898.28;;;16.40;52.89
9893;BME280;4985;49.092;8.542;2022-11-12T04:05:13;100905.41;;;16.40;52.88
9893;BME280;4985;49.092;8.542;2022-11-12T04:07:58;100900.09;;;16.40;52.87
9893;BME280;4985;49.092;8.542;2022-11-12T04:10:42;100901.94;;;16.39;52.87
9893;BME280;4985;49.092;8.542;2022-11-12T04:13:09;100890.47;;;16.39;52.86
9893;BME280;4985;49.092;8.542;2022-11-12T04:15:53;100893.12;;;16.39;52.87
9893;BME280;4985;49.092;8.542;2022-11-12T04:18:33;100887.81;;;16.39;52.87
9893;BME280;4985;49.092;8.542;2022-11-12T04:21:19;100891.47;;;16.38;52.88
9893;BME280;4985;49.092;8.542;2022-11-12T04:24:04;100892.28;;;16.38;52.88
9893;BME280;4985;49.092;8.542;2022-11-12T04:26:31;100894.13;;;16.38;52.88
9893;BME280;4985;49.092;8.542;2022-11-12T04:28:56;100902.09;;;16.38;52.89
9893;BME280;4985;49.092;8.542;2022-11-12T04:31:40;100894.28;;;16.36;52.88
9893;BME280;4985;49.092;8.542;2022-11-12T04:34:07;100893.47;;;16.36;52.89
9893;BME280;4985;49.092;8.542;2022-11-12T04:36:52;100897.09;;;16.35;52.90
9893;BME280;4985;49.092;8.542;2022-11-12T04:39:19;100898.78;;;16.36;52.89
9893;BME280;4985;49.092;8.542;2022-11-12T04:41:46;100902.41;;;16.35;52.89
9893;BME280;4985;49.092;8.542;2022-11-12T04:44:30;100909.41;;;16.36;52.89
9893;BME280;4985;49.092;8.542;2022-11-12T04:47:14;100903.25;;;16.35;52.90
9893;BME280;4985;49.092;8.542;2022-11-12T04:49:40;100897.78;;;16.37;52.86
9893;BME280;4985;49.092;8.542;2022-11-12T04:52:09;100898.78;;;16.36;52.85
9893;BME280;4985;49.092;8.542;2022-11-12T04:54:35;100896.94;;;16.36;52.87
9893;BME280;4985;49.092;8.542;2022-11-12T04:57:02;100904.91;;;16.36;52.85
9893;BME280;4985;49.092;8.542;2022-11-12T04:59:29;100898.78;;;16.36;52.87
9893;BME280;4985;49.092;8.542;2022-11-12T05:01:56;100898.09;;;16.34;52.87
9893;BME280;4985;49.092;8.542;2022-11-12T05:04:22;100895.44;;;16.34;52.90
9893;BME280;4985;49.092;8.542;2022-11-12T05:06:52;100897.28;;;16.33;52.89
9893;BME280;4985;49.092;8.542;2022-11-12T05:09:21;100894.63;;;16.33;52.88
9893;BME280;4985;49.092;8.542;2022-11-12T05:11:48;100902.41;;;16.35;52.87
9893;BME280;4985;49.092;8.542;2022-11-12T05:14:15;100898.09;;;16.34;52.86
9893;BME280;4985;49.092;8.542;2022-11-12T05:16:42;100882.78;;;16.27;52.87
9893;BME280;4985;49.092;8.542;2022-11-12T05:19:08;100889.31;;;16.33;52.87
9893;BME280;4985;49.092;8.542;2022-11-12T05:21:35;100884.81;;;16.34;52.86
9893;BME280;4985;49.092;8.542;2022-11-12T05:24:20;100897.09;;;16.35;52.83
9893;BME280;4985;49.092;8.542;2022-11-12T05:26:47;100889.31;;;16.33;52.86
9893;BME280;4985;49.092;8.542;2022-11-12T05:29:14;100884.16;;;16.32;52.85
9893;BME280;4985;49.092;8.542;2022-11-12T05:31:40;100882.31;;;16.32;52.85
9893;BME280;4985;49.092;8.542;2022-11-12T05:34:07;100888.47;;;16.33;52.85
9893;BME280;4985;49.092;8.542;2022-11-12T05:36:34;100886.81;;;16.32;52.88
9893;BME280;4985;49.092;8.542;2022-11-12T05:39:00;100891.13;;;16.33;52.86
9893;BME280;4985;49.092;8.542;2022-11-12T05:41:29;100889.47;;;16.32;52.87
9893;BME280;4985;49.092;8.542;2022-11-12T05:43:55;100894.63;;;16.33;52.87
9893;BME280;4985;49.092;8.542;2022-11-12T05:46:22;100892.13;;;16.32;52.86
9893;BME280;4985;49.092;8.542;2022-11-12T05:48:49;100893.94;;;16.31;52.88
9893;BME280;4985;49.092;8.542;2022-11-12T05:51:16;100888.78;;;16.29;52.89
9893;BME280;4985;49.092;8.542;2022-11-12T05:53:42;100892.25;;;16.30;52.89
9893;BME280;4985;49.092;8.542;2022-11-12T05:56:09;100900.22;;;16.30;52.90
9893;BME280;4985;49.092;8.542;2022-11-12T05:58:38;100900.22;;;16.30;52.88
9893;BME280;4985;49.092;8.542;2022-11-12T06:01:05;100900.22;;;16.30;52.88
9893;BME280;4985;49.092;8.542;2022-11-12T06:03:31;100902.88;;;16.30;52.86
9893;BME280;4985;49.092;8.542;2022-11-12T06:05:58;100902.88;;;16.30;52.86
9893;BME280;4985;49.092;8.542;2022-11-12T06:08:25;100907.25;;;16.31;52.83
9893;BME280;4985;49.092;8.542;2022-11-12T06:10:52;100913.50;;;16.30;52.82
9893;BME280;4985;49.092;8.542;2022-11-12T06:13:21;100917.00;;;16.30;52.86
9893;BME280;4985;49.092;8.542;2022-11-12T06:15:49;100920.66;;;16.29;52.85
9893;BME280;4985;49.092;8.542;2022-11-12T06:18:16;100926.97;;;16.28;52.84
9893;BME280;4985;49.092;8.542;2022-11-12T06:20:43;100925.97;;;16.29;52.83
9893;BME280;4985;49.092;8.542;2022-11-12T06:23:31;100929.63;;;16.28;52.85
9893;BME280;4985;49.092;8.542;2022-11-12T06:25:58;100931.44;;;16.28;52.88
9893;BME280;4985;49.092;8.542;2022-11-12T06:28:27;100918.00;;;16.21;52.86
9893;BME280;4985;49.092;8.542;2022-11-12T06:30:55;100934.94;;;16.28;52.83
9893;BME280;4985;49.092;8.542;2022-11-12T06:33:22;100935.94;;;16.27;52.85
9893;BME280;4985;49.092;8.542;2022-11-12T06:35:55;100933.44;;;16.26;52.87
9893;BME280;4985;49.092;8.542;2022-11-12T06:38:27;100933.44;;;16.26;52.90
9893;BME280;4985;49.092;8.542;2022-11-12T06:40:54;100936.94;;;16.26;52.88
9893;BME280;4985;49.092;8.542;2022-11-12T06:43:20;100934.28;;;16.26;52.87
9893;BME280;4985;49.092;8.542;2022-11-12T06:45:47;100935.94;;;16.27;52.86
9893;BME280;4985;49.092;8.542;2022-11-12T06:48:15;100935.94;;;16.27;52.83
9893;BME280;4985;49.092;8.542;2022-11-12T06:50:42;100922.66;;;16.27;52.83
9893;BME280;4985;49.092;8.542;2022-11-12T06:53:08;100930.62;;;16.27;52.84
9893;BME280;4985;49.092;8.542;2022-11-12T06:55:35;100924.31;;;16.28;52.80
9893;BME280;4985;49.092;8.542;2022-11-12T06:58:01;100923.47;;;16.28;52.79
9893;BME280;4985;49.092;8.542;2022-11-12T07:00:28;100929.78;;;16.27;52.82
9893;BME280;4985;49.092;8.542;2022-11-12T07:02:55;100925.47;;;16.26;52.83
9893;BME280;4985;49.092;8.542;2022-11-12T07:05:23;100928.97;;;16.26;52.83
9893;BME280;4985;49.092;8.542;2022-11-12T07:07:49;100923.81;;;16.25;52.83
9893;BME280;4985;49.092;8.542;2022-11-12T07:10:16;100921.97;;;16.25;52.82
9893;BME280;4985;49.092;8.542;2022-11-12T07:12:43;100921.00;;;16.26;52.82
9893;BME280;4985;49.092;8.542;2022-11-12T07:15:09;100922.97;;;16.24;52.84
9893;BME280;4985;49.092;8.542;2022-11-12T07:17:36;100921.94;;;16.17;52.84
9893;BME280;4985;49.092;8.542;2022-11-12T07:20:03;100926.62;;;16.23;52.85
9893;BME280;4985;49.092;8.542;2022-11-12T07:22:32;100920.31;;;16.24;52.85
9893;BME280;4985;49.092;8.542;2022-11-12T07:24:59;100914.19;;;16.24;52.85
9893;BME280;4985;49.092;8.542;2022-11-12T07:27:28;100922.16;;;16.24;52.86
9893;BME280;4985;49.092;8.542;2022-11-12T07:29:55;100916.00;;;16.23;52.85
9893;BME280;4985;49.092;8.542;2022-11-12T07:32:22;100926.62;;;16.23;52.83
9893;BME280;4985;49.092;8.542;2022-11-12T07:34:48;100925.63;;;16.24;52.85
9893;BME280;4985;49.092;8.542;2022-11-12T07:37:15;100927.47;;;16.24;52.83
9893;BME280;4985;49.092;8.542;2022-11-12T07:39:43;100916.00;;;16.23;52.83
9893;BME280;4985;49.092;8.542;2022-11-12T07:42:10;100918.66;;;16.23;52.82
9893;BME280;4985;49.092;8.542;2022-11-12T07:44:36;100916.84;;;16.24;52.82
9893;BME280;4985;49.092;8.542;2022-11-12T07:47:03;100913.34;;;16.23;52.83
9893;BME280;4985;49.092;8.542;2022-11-12T07:49:30;100922.31;;;16.22;52.85
9893;BME280;4985;49.092;8.542;2022-11-12T07:51:56;100917.16;;;16.21;52.85
9893;BME280;4985;49.092;8.542;2022-11-12T07:54:23;100912.69;;;16.21;52.85
9893;BME280;4985;49.092;8.542;2022-11-12T07:56:51;100917.84;;;16.23;52.84
9893;BME280;4985;49.092;8.542;2022-11-12T07:59:17;100908.34;;;16.20;52.87
9893;BME280;4985;49.092;8.542;2022-11-12T08:01:44;100916.34;;;16.20;52.88
9893;BME280;4985;49.092;8.542;2022-11-12T08:04:11;100917.16;;;16.21;52.86
9893;BME280;4985;49.092;8.542;2022-11-12T08:06:38;100915.50;;;16.20;52.88
9893;BME280;4985;49.092;8.542;2022-11-12T08:09:06;100914.50;;;16.21;52.86
9893;BME280;4985;49.092;8.542;2022-11-12T08:11:34;100908.34;;;16.20;52.87
9893;BME280;4985;49.092;8.542;2022-11-12T08:14:02;100906.53;;;16.21;52.87
9893;BME280;4985;49.092;8.542;2022-11-12T08:16:29;100911.84;;;16.21;52.86
9893;BME280;4985;49.092;8.542;2022-11-12T08:18:56;100911.69;;;16.22;52.82
9893;BME280;4985;49.092;8.542;2022-11-12T08:21:23;100905.69;;;16.20;52.85
9893;BME280;4985;49.092;8.542;2022-11-12T08:23:50;100912.84;;;16.20;52.88
9893;BME280;4985;49.092;8.542;2022-11-12T08:26:18;100900.38;;;16.20;52.87
9893;BME280;4985;49.092;8.542;2022-11-12T08:28:45;100892.41;;;16.20;52.87
9893;BME280;4985;49.092;8.542;2022-11-12T08:31:15;100901.22;;;16.21;52.86
9893;BME280;4985;49.092;8.542;2022-11-12T08:33:42;100903.03;;;16.20;52.86
9893;BME280;4985;49.092;8.542;2022-11-12T08:36:11;100895.69;;;16.14;52.85
9893;BME280;4985;49.092;8.542;2022-11-12T08:38:39;100902.22;;;16.20;52.88
9893;BME280;4985;49.092;8.542;2022-11-12T08:41:08;100905.69;;;16.20;52.91
9893;BME280;4985;49.092;8.542;2022-11-12T08:43:38;100889.34;;;16.07;52.90
9893;BME280;4985;49.092;8.542;2022-11-12T08:46:05;100904.00;;;16.19;52.90
9893;BME280;4985;49.092;8.542;2022-11-12T08:48:33;100900.53;;;16.19;52.91
9893;BME280;4985;49.092;8.542;2022-11-12T08:51:01;100904.66;;;16.13;52.91
9893;BME280;4985;49.092;8.542;2022-11-12T08:53:28;100911.16;;;16.19;52.91
9893;BME280;4985;49.092;8.542;2022-11-12T08:55:55;100911.97;;;16.19;52.92
9893;BME280;4985;49.092;8.542;2022-11-12T08:58:22;100913.81;;;16.19;52.93
9893;BME280;4985;49.092;8.542;2022-11-12T09:00:49;100908.50;;;16.19;52.92
9893;BME280;4985;49.092;8.542;2022-11-12T09:03:18;100905.69;;;16.20;52.92
9893;BME280;4985;49.092;8.542;2022-11-12T09:05:47;100900.38;;;16.20;52.90
9893;BME280;4985;49.092;8.542;2022-11-12T09:08:16;100906.66;;;16.19;52.90
9893;BME280;4985;49.092;8.542;2022-11-12T09:10:44;100911.97;;;16.19;52.91
9893;BME280;4985;49.092;8.542;2022-11-12T09:13:11;100911.00;;;16.20;52.92
9893;BME280;4985;49.092;8.542;2022-11-12T09:15:38;100913.69;;;16.20;52.92
9893;BME280;4985;49.092;8.542;2022-11-12T09:18:06;100912.84;;;16.20;52.92
9893;BME280;4985;49.092;8.542;2022-11-12T09:20:33;100906.66;;;16.19;52.96
9893;BME280;4985;49.092;8.542;2022-11-12T09:23:03;100904.87;;;16.20;52.96
9893;BME280;4985;49.092;8.542;2022-11-12T09:25:32;100908.50;;;16.19;52.93
9893;BME280;4985;49.092;8.542;2022-11-12T09:28:05;100907.53;;;16.20;52.94
9893;BME280;4985;49.092;8.542;2022-11-12T09:30:32;100911.00;;;16.20;52.93
9893;BME280;4985;49.092;8.542;2022-11-12T09:32:58;100908.34;;;16.20;52.94
9893;BME280;4985;49.092;8.542;2022-11-12T09:35:25;100908.34;;;16.20;52.94
9893;BME280;4985;49.092;8.542;2022-11-12T09:37:51;100904.87;;;16.20;52.94
9893;BME280;4985;49.092;8.542;2022-11-12T09:40:20;100908.50;;;16.19;52.98
9893;BME280;4985;49.092;8.542;2022-11-12T09:42:51;100905.00;;;16.18;53.02
9893;BME280;4985;49.092;8.542;2022-11-12T09:45:21;100908.66;;;16.17;53.10
9893;BME280;4985;49.092;8.542;2022-11-12T09:47:51;100920.28;;;16.16;53.15
9893;BME280;4985;49.092;8.542;2022-11-12T09:50:23;100912.47;;;16.15;53.20
9893;BME280;4985;49.092;8.542;2022-11-12T09:52:55;100910.81;;;16.14;53.23
9893;BME280;4985;49.092;8.542;2022-11-12T09:55:29;100913.31;;;16.15;53.35
9893;BME280;4985;49.092;8.542;2022-11-12T09:57:56;100916.62;;;16.17;53.49
9893;BME280;4985;49.092;8.542;2022-11-12T10:00:23;100916.62;;;16.17;53.42
9893;BME280;4985;49.092;8.542;2022-11-12T10:02:53;100908.00;;;16.15;53.42
9893;BME280;4985;49.092;8.542;2022-11-12T10:05:25;100916.97;;;16.14;53.44
9893;BME280;4985;49.092;8.542;2022-11-12T10:08:19;100922.28;;;16.14;53.47
9893;BME280;4985;49.092;8.542;2022-11-12T10:11:02;100924.94;;;16.14;53.52
9893;BME280;4985;49.092;8.542;2022-11-12T10:13:43;100909.78;;;16.07;53.99
9893;BME280;4985;49.092;8.542;2022-11-12T10:16:23;100916.62;;;16.17;54.02
9893;BME280;4985;49.092;8.542;2022-11-12T10:19:22;100915.97;;;16.15;53.98
9893;BME280;4985;49.092;8.542;2022-11-12T10:21:57;100920.28;;;16.16;53.88
9893;BME280;4985;49.092;8.542;2022-11-12T10:24:30;100916.78;;;16.16;53.95
9893;BME280;4985;49.092;8.542;2022-11-12T10:27:01;100917.94;;;16.13;54.03
9893;BME280;4985;49.092;8.542;2022-11-12T10:29:44;100918.28;;;16.10;54.02
9893;BME280;4985;49.092;8.542;2022-11-12T10:32:14;100922.88;;;16.08;54.07
9893;BME280;4985;49.092;8.542;2022-11-12T10:34:41;100917.91;;;16.05;54.14
9893;BME280;4985;49.092;8.542;2022-11-12T10:37:13;100910.09;;;16.04;54.12
9893;BME280;4985;49.092;8.542;2022-11-12T10:39:43;100912.91;;;16.02;54.13
9893;BME280;4985;49.092;8.542;2022-11-12T10:42:15;100910.44;;;16.00;54.17
9893;BME280;4985;49.092;8.542;2022-11-12T10:44:43;100914.06;;;15.99;54.19
9893;BME280;4985;49.092;8.542;2022-11-12T10:47:23;100906.28;;;15.98;54.20
9893;BME280;4985;49.092;8.542;2022-11-12T10:50:15;100911.87;;;15.95;54.28
9893;BME280;4985;49.092;8.542;2022-11-12T10:52:55;100910.22;;;15.94;54.30
9893;BME280;4985;49.092;8.542;2022-11-12T10:55:24;100898.75;;;15.93;54.31
9893;BME280;4985;49.092;8.542;2022-11-12T10:58:15;100895.28;;;15.93;54.31
9893;BME280;4985;49.092;8.542;2022-11-12T11:01:12;100896.94;;;15.94;54.30
9893;BME280;4985;49.092;8.542;2022-11-12T11:03:44;100902.25;;;15.94;54.30
9893;BME280;4985;49.092;8.542;2022-11-12T11:06:20;100894.44;;;15.92;54.30
9893;BME280;4985;49.092;8.542;2022-11-12T11:08:48;100895.28;;;15.93;54.31
9893;BME280;4985;49.092;8.542;2022-11-12T11:11:19;100899.59;;;15.94;54.31
9893;BME280;4985;49.092;8.542;2022-11-12T11:13:48;100899.75;;;15.92;54.31
9893;BME280;4985;49.092;8.542;2022-11-12T11:16:18;100890.94;;;15.92;54.30
9893;BME280;4985;49.092;8.542;2022-11-12T11:18:48;100892.62;;;15.93;54.32
9893;BME280;4985;49.092;8.542;2022-11-12T11:21:38;100896.25;;;15.92;54.32
9893;BME280;4985;49.092;8.542;2022-11-12T11:24:21;100890.94;;;15.92;54.30
9893;BME280;4985;49.092;8.542;2022-11-12T11:26:57;100890.13;;;15.91;54.29
9893;BME280;4985;49.092;8.542;2022-11-12T11:29:39;100888.28;;;15.92;54.29
9893;BME280;4985;49.092;8.542;2022-11-12T11:32:18;100894.59;;;15.91;54.29
9893;BME280;4985;49.092;8.542;2022-11-12T11:34:56;100889.28;;;15.91;54.30
9893;BME280;4985;49.092;8.542;2022-11-12T11:37:29;100881.47;;;15.89;54.33
9893;BME280;4985;49.092;8.542;2022-11-12T11:40:02;100882.16;;;15.91;54.32
9893;BME280;4985;49.092;8.542;2022-11-12T11:42:51;100881.31;;;15.91;54.30
9893;BME280;4985;49.092;8.542;2022-11-12T11:45:27;100877.84;;;15.90;54.30
9893;BME280;4985;49.092;8.542;2022-11-12T11:48:07;100869.69;;;15.92;54.30
9893;BME280;4985;49.092;8.542;2022-11-12T11:50:40;100872.53;;;15.90;54.31
9893;BME280;4985;49.092;8.542;2022-11-12T11:53:18;100871.69;;;15.90;54.31
9893;BME280;4985;49.092;8.542;2022-11-12T11:55:53;100871.69;;;15.90;54.32
9893;BME280;4985;49.092;8.542;2022-11-12T11:58:37;100865.56;;;15.89;54.33
9893;BME280;4985;49.092;8.542;2022-11-12T12:01:14;100868.38;;;15.88;54.35
9893;BME280;4985;49.092;8.542;2022-11-12T12:03:54;100863.87;;;15.88;54.36
9893;BME280;4985;49.092;8.542;2022-11-12T12:06:26;100862.22;;;15.87;54.36
9893;BME280;4985;49.092;8.542;2022-11-12T12:09:02;100861.22;;;15.88;54.36
9893;BME280;4985;49.092;8.542;2022-11-12T12:11:39;100855.25;;;15.86;54.38
9893;BME280;4985;49.092;8.542;2022-11-12T12:14:28;100857.75;;;15.88;54.40
9893;BME280;4985;49.092;8.542;2022-11-12T12:17:08;100861.41;;;15.87;54.41
9893;BME280;4985;49.092;8.542;2022-11-12T12:19:53;100856.91;;;15.87;54.39
9893;BME280;4985;49.092;8.542;2022-11-12T12:22:27;100854.09;;;15.89;54.35
9893;BME280;4985;49.092;8.542;2022-11-12T12:24:56;100847.75;;;15.82;54.36
9893;BME280;4985;49.092;8.542;2022-11-12T12:27:29;100848.78;;;15.89;54.34
9893;BME280;4985;49.092;8.542;2022-11-12T12:30:00;100839.00;;;15.89;54.33
9893;BME280;4985;49.092;8.542;2022-11-12T12:32:33;100835.97;;;15.84;54.34
9893;BME280;4985;49.092;8.542;2022-11-12T12:35:04;100840.00;;;15.88;54.34
9893;BME280;4985;49.092;8.542;2022-11-12T12:37:37;100830.34;;;15.87;54.36
9893;BME280;4985;49.092;8.542;2022-11-12T12:40:13;100830.19;;;15.89;54.33
9893;BME280;4985;49.092;8.542;2022-11-12T12:42:46;100830.19;;;15.89;54.33
9893;BME280;4985;49.092;8.542;2022-11-12T12:45:25;100828.38;;;15.89;54.31
9893;BME280;4985;49.092;8.542;2022-11-12T12:47:57;100819.41;;;15.90;54.28
9893;BME280;4985;49.092;8.542;2022-11-12T12:50:25;100809.78;;;15.89;54.29
9893;BME280;4985;49.092;8.542;2022-11-12T12:53:02;100813.25;;;15.90;54.28
9893;BME280;4985;49.092;8.542;2022-11-12T12:55:38;100811.59;;;15.89;54.30
9893;BME280;4985;49.092;8.542;2022-11-12T12:58:15;100790.97;;;15.83;54.28
9893;BME280;4985;49.092;8.542;2022-11-12T13:00:47;100799.97;;;15.90;54.28
9893;BME280;4985;49.092;8.542;2022-11-12T13:03:47;100799.97;;;15.90;54.28
9893;BME280;4985;49.092;8.542;2022-11-12T13:06:21;100797.31;;;15.90;54.27
9893;BME280;4985;49.092;8.542;2022-11-12T13:08:51;100794.84;;;15.88;54.28
9893;BME280;4985;49.092;8.542;2022-11-12T13:11:50;100789.53;;;15.88;54.28
9893;BME280;4985;49.092;8.542;2022-11-12T13:14:51;100782.56;;;15.87;54.30
9893;BME280;4985;49.092;8.542;2022-11-12T13:17:41;100779.72;;;15.89;54.29
9893;BME280;4985;49.092;8.542;2022-11-12T13:20:35;100775.41;;;15.88;54.30
9893;BME280;4985;49.092;8.542;2022-11-12T13:23:07;100776.41;;;15.87;54.33
9893;BME280;4985;49.092;8.542;2022-11-12T13:25:35;100771.09;;;15.87;54.34
9893;BME280;4985;49.092;8.542;2022-11-12T13:28:09;100771.09;;;15.87;54.34